sensor_id;sensor_type;location;lat;lon;timestamp;temperature;humidity
27781;DHT22;15167;1.318;103.762;2022-10-13T00:00:31;26.90;99.90
27781;DHT22;15167;1.318;103.762;2022-10-13T00:02:58;27.00;99.90
27781;DHT22;15167;1.318;103.762;2022-10-13T00:05:25;27.10;99.90
27781;DHT22;15167;1.318;103.762;2022-10-13T00:07:51;27.20;99.90
27781;DHT22;15167;1.318;103.762;2022-10-13T00:10:17;27.20;99.90
27781;DHT22;15167;1.318;103.762;2022-10-13T00:12:43;27.30;99.90
27781;DHT22;15167;1.318;103.762;2022-10-13T00:15:10;27.30;99.90
27781;DHT22;15167;1.318;103.762;2022-10-13T00:17:36;27.30;99.90
27781;DHT22;15167;1.318;103.762;2022-10-13T00:20:03;27.40;99.90
27781;DHT22;15167;1.318;103.762;2022-10-13T00:22:29;27.40;99.90
27781;DHT22;15167;1.318;103.762;2022-10-13T00:24:55;27.40;99.90
27781;DHT22;15167;1.318;103.762;2022-10-13T00:27:21;27.40;99.90
27781;DHT22;15167;1.318;103.762;2022-10-13T00:29:47;27.40;99.90
27781;DHT22;15167;1.318;103.762;2022-10-13T00:32:14;27.50;99.90
27781;DHT22;15167;1.318;103.762;2022-10-13T00:34:40;27.50;99.90
27781;DHT22;15167;1.318;103.762;2022-10-13T00:37:06;27.50;99.90
27781;DHT22;15167;1.318;103.762;2022-10-13T00:39:32;27.60;99.90
27781;DHT22;15167;1.318;103.762;2022-10-13T00:41:59;27.60;99.90
27781;DHT22;15167;1.318;103.762;2022-10-13T00:47:10;27.60;99.90
27781;DHT22;15167;1.318;103.762;2022-10-13T00:49:36;27.60;99.90
27781;DHT22;15167;1.318;103.762;2022-10-13T00:52:03;27.60;99.90
27781;DHT22;15167;1.318;103.762;2022-10-13T00:54:29;27.60;99.90
27781;DHT22;15167;1.318;103.762;2022-10-13T00:56:55;27.60;99.90
27781;DHT22;15167;1.318;103.762;2022-10-13T00:59:26;27.70;99.90
27781;DHT22;15167;1.318;103.762;2022-10-13T01:01:54;27.70;99.90
27781;DHT22;15167;1.318;103.762;2022-10-13T01:04:21;27.80;99.90
27781;DHT22;15167;1.318;103.762;2022-10-13T01:06:48;27.90;99.90
27781;DHT22;15167;1.318;103.762;2022-10-13T01:09:14;27.90;99.90
27781;DHT22;15167;1.318;103.762;2022-10-13T01:14:22;28.00;99.90
27781;DHT22;15167;1.318;103.762;2022-10-13T01:17:05;28.00;99.90
27781;DHT22;15167;1.318;103.762;2022-10-13T01:37:29;28.20;99.90
27781;DHT22;15167;1.318;103.762;2022-10-13T01:40:05;28.30;99.90
27781;DHT22;15167;1.318;103.762;2022-10-13T01:42:34;28.30;99.90
27781;DHT22;15167;1.318;103.762;2022-10-13T01:45:02;28.40;99.90
27781;DHT22;15167;1.318;103.762;2022-10-13T01:47:29;28.50;99.90
27781;DHT22;15167;1.318;103.762;2022-10-13T01:49:56;28.60;99.90
27781;DHT22;15167;1.318;103.762;2022-10-13T01:52:23;28.60;99.90
27781;DHT22;15167;1.318;103.762;2022-10-13T01:54:51;28.60;99.90
27781;DHT22;15167;1.318;103.762;2022-10-13T01:57:31;28.60;99.90
27781;DHT22;15167;1.318;103.762;2022-10-13T02:00:02;28.70;99.90
27781;DHT22;15167;1.318;103.762;2022-10-13T02:02:34;28.70;99.90
27781;DHT22;15167;1.318;103.762;2022-10-13T02:05:06;28.70;99.90
27781;DHT22;15167;1.318;103.762;2022-10-13T02:07:43;28.80;99.90
27781;DHT22;15167;1.318;103.762;2022-10-13T02:10:21;28.90;99.90
27781;DHT22;15167;1.318;103.762;2022-10-13T02:13:01;28.90;99.90
27781;DHT22;15167;1.318;103.762;2022-10-13T02:15:29;28.90;99.90
27781;DHT22;15167;1.318;103.762;2022-10-13T02:17:57;28.90;99.90
27781;DHT22;15167;1.318;103.762;2022-10-13T02:20:25;28.80;99.90
27781;DHT22;15167;1.318;103.762;2022-10-13T02:22:53;28.80;99.90
27781;DHT22;15167;1.318;103.762;2022-10-13T02:25:21;28.80;99.90
27781;DHT22;15167;1.318;103.762;2022-10-13T02:27:47;28.70;99.90
27781;DHT22;15167;1.318;103.762;2022-10-13T02:30:23;28.80;99.90
27781;DHT22;15167;1.318;103.762;2022-10-13T02:32:50;28.90;99.90
27781;DHT22;15167;1.318;103.762;2022-10-13T02:35:16;28.80;99.90
27781;DHT22;15167;1.318;103.762;2022-10-13T02:37:42;28.70;99.90
27781;DHT22;15167;1.318;103.762;2022-10-13T02:40:09;28.50;99.90
27781;DHT22;15167;1.318;103.762;2022-10-13T02:42:35;28.50;99.90
27781;DHT22;15167;1.318;103.762;2022-10-13T02:45:01;28.50;99.90
27781;DHT22;15167;1.318;103.762;2022-10-13T02:47:28;28.50;99.90
27781;DHT22;15167;1.318;103.762;2022-10-13T02:49:54;28.50;99.90
27781;DHT22;15167;1.318;103.762;2022-10-13T02:52:20;28.60;99.90
27781;DHT22;15167;1.318;103.762;2022-10-13T02:54:46;28.60;99.90
27781;DHT22;15167;1.318;103.762;2022-10-13T02:57:12;28.70;99.90
27781;DHT22;15167;1.318;103.762;2022-10-13T02:59:38;28.80;99.90
27781;DHT22;15167;1.318;103.762;2022-10-13T03:02:04;28.90;99.90
27781;DHT22;15167;1.318;103.762;2022-10-13T03:04:30;28.90;99.90
27781;DHT22;15167;1.318;103.762;2022-10-13T03:06:56;28.90;99.90
27781;DHT22;15167;1.318;103.762;2022-10-13T03:09:23;29.00;99.90
27781;DHT22;15167;1.318;103.762;2022-10-13T03:11:49;29.10;99.90
27781;DHT22;15167;1.318;103.762;2022-10-13T03:14:15;29.10;99.90
27781;DHT22;15167;1.318;103.762;2022-10-13T03:16:41;29.10;99.90
27781;DHT22;15167;1.318;103.762;2022-10-13T03:19:07;29.00;99.90
27781;DHT22;15167;1.318;103.762;2022-10-13T03:21:33;29.10;99.90
27781;DHT22;15167;1.318;103.762;2022-10-13T03:23:59;29.20;99.90
27781;DHT22;15167;1.318;103.762;2022-10-13T03:26:25;29.30;99.90
27781;DHT22;15167;1.318;103.762;2022-10-13T03:28:52;29.20;99.90
27781;DHT22;15167;1.318;103.762;2022-10-13T03:31:18;29.20;99.90
27781;DHT22;15167;1.318;103.762;2022-10-13T03:33:44;29.30;99.90
27781;DHT22;15167;1.318;103.762;2022-10-13T03:36:10;29.40;99.90
27781;DHT22;15167;1.318;103.762;2022-10-13T03:38:38;29.50;99.90
27781;DHT22;15167;1.318;103.762;2022-10-13T03:41:05;29.40;99.90
27781;DHT22;15167;1.318;103.762;2022-10-13T03:43:31;29.40;99.90
27781;DHT22;15167;1.318;103.762;2022-10-13T03:45:58;29.30;99.90
27781;DHT22;15167;1.318;103.762;2022-10-13T03:48:24;29.20;99.90
27781;DHT22;15167;1.318;103.762;2022-10-13T03:50:50;29.20;99.90
27781;DHT22;15167;1.318;103.762;2022-10-13T03:53:17;29.20;99.90
27781;DHT22;15167;1.318;103.762;2022-10-13T03:55:54;29.30;99.90
27781;DHT22;15167;1.318;103.762;2022-10-13T03:58:21;29.30;99.90
27781;DHT22;15167;1.318;103.762;2022-10-13T04:00:48;29.20;99.90
27781;DHT22;15167;1.318;103.762;2022-10-13T04:03:14;29.30;99.90
27781;DHT22;15167;1.318;103.762;2022-10-13T04:05:41;29.40;99.90
27781;DHT22;15167;1.318;103.762;2022-10-13T04:08:07;29.50;99.90
27781;DHT22;15167;1.318;103.762;2022-10-13T04:10:34;29.60;99.90
27781;DHT22;15167;1.318;103.762;2022-10-13T04:13:00;29.60;99.90
27781;DHT22;15167;1.318;103.762;2022-10-13T04:15:26;29.70;99.90
27781;DHT22;15167;1.318;103.762;2022-10-13T04:17:52;29.60;99.90
27781;DHT22;15167;1.318;103.762;2022-10-13T04:20:18;29.60;99.90
27781;DHT22;15167;1.318;103.762;2022-10-13T04:22:44;29.60;99.90
27781;DHT22;15167;1.318;103.762;2022-10-13T04:25:11;29.70;99.90
27781;DHT22;15167;1.318;103.762;2022-10-13T04:27:37;30.00;99.90
27781;DHT22;15167;1.318;103.762;2022-10-13T04:30:04;30.20;99.00
27781;DHT22;15167;1.318;103.762;2022-10-13T04:32:31;30.30;98.60
27781;DHT22;15167;1.318;103.762;2022-10-13T04:34:57;30.50;99.10
27781;DHT22;15167;1.318;103.762;2022-10-13T04:37:23;30.60;99.30
27781;DHT22;15167;1.318;103.762;2022-10-13T04:39:49;30.50;98.60
27781;DHT22;15167;1.318;103.762;2022-10-13T04:42:15;30.50;99.70
27781;DHT22;15167;1.318;103.762;2022-10-13T04:44:42;30.60;99.40
27781;DHT22;15167;1.318;103.762;2022-10-13T04:47:08;30.50;99.10
27781;DHT22;15167;1.318;103.762;2022-10-13T04:49:34;30.50;97.70
27781;DHT22;15167;1.318;103.762;2022-10-13T04:52:00;30.50;99.30
27781;DHT22;15167;1.318;103.762;2022-10-13T04:54:26;30.50;97.50
27781;DHT22;15167;1.318;103.762;2022-10-13T04:56:52;30.30;97.90
27781;DHT22;15167;1.318;103.762;2022-10-13T04:59:18;30.20;99.90
27781;DHT22;15167;1.318;103.762;2022-10-13T05:01:45;30.20;99.90
27781;DHT22;15167;1.318;103.762;2022-10-13T05:04:11;30.30;99.90
27781;DHT22;15167;1.318;103.762;2022-10-13T05:06:38;30.30;96.50
27781;DHT22;15167;1.318;103.762;2022-10-13T05:09:04;30.20;97.80
27781;DHT22;15167;1.318;103.762;2022-10-13T05:11:31;30.30;99.10
27781;DHT22;15167;1.318;103.762;2022-10-13T05:14:00;30.30;99.50
27781;DHT22;15167;1.318;103.762;2022-10-13T05:16:27;30.40;99.00
27781;DHT22;15167;1.318;103.762;2022-10-13T05:18:55;30.40;96.40
27781;DHT22;15167;1.318;103.762;2022-10-13T05:21:22;30.40;97.40
27781;DHT22;15167;1.318;103.762;2022-10-13T05:23:49;30.40;97.90
27781;DHT22;15167;1.318;103.762;2022-10-13T05:26:18;30.30;97.10
27781;DHT22;15167;1.318;103.762;2022-10-13T05:28:45;30.40;97.60
27781;DHT22;15167;1.318;103.762;2022-10-13T05:31:15;30.40;97.10
27781;DHT22;15167;1.318;103.762;2022-10-13T05:33:41;30.20;97.20
27781;DHT22;15167;1.318;103.762;2022-10-13T05:36:12;30.10;99.40
27781;DHT22;15167;1.318;103.762;2022-10-13T05:38:38;30.20;99.50
27781;DHT22;15167;1.318;103.762;2022-10-13T05:41:05;30.30;99.50
27781;DHT22;15167;1.318;103.762;2022-10-13T05:43:32;30.30;99.90
27781;DHT22;15167;1.318;103.762;2022-10-13T05:45:59;30.30;99.90
27781;DHT22;15167;1.318;103.762;2022-10-13T05:48:25;30.30;99.90
27781;DHT22;15167;1.318;103.762;2022-10-13T05:50:52;30.20;99.50
27781;DHT22;15167;1.318;103.762;2022-10-13T05:53:19;30.40;97.50
27781;DHT22;15167;1.318;103.762;2022-10-13T05:55:47;30.40;95.80
27781;DHT22;15167;1.318;103.762;2022-10-13T05:58:13;30.30;95.80
27781;DHT22;15167;1.318;103.762;2022-10-13T06:00:39;30.20;95.80
27781;DHT22;15167;1.318;103.762;2022-10-13T06:03:07;30.30;90.30
27781;DHT22;15167;1.318;103.762;2022-10-13T06:05:34;30.30;80.60
27781;DHT22;15167;1.318;103.762;2022-10-13T06:08:00;30.30;84.70
27781;DHT22;15167;1.318;103.762;2022-10-13T06:10:27;30.30;88.20
27781;DHT22;15167;1.318;103.762;2022-10-13T06:12:53;30.40;91.50
27781;DHT22;15167;1.318;103.762;2022-10-13T06:15:19;30.50;90.70
27781;DHT22;15167;1.318;103.762;2022-10-13T06:17:46;30.50;89.50
27781;DHT22;15167;1.318;103.762;2022-10-13T06:20:12;30.70;88.80
27781;DHT22;15167;1.318;103.762;2022-10-13T06:22:38;30.60;80.50
27781;DHT22;15167;1.318;103.762;2022-10-13T06:25:04;30.60;89.10
27781;DHT22;15167;1.318;103.762;2022-10-13T06:27:31;30.50;90.80
27781;DHT22;15167;1.318;103.762;2022-10-13T06:29:57;30.60;78.30
27781;DHT22;15167;1.318;103.762;2022-10-13T06:32:23;30.60;83.60
27781;DHT22;15167;1.318;103.762;2022-10-13T06:34:49;30.50;80.10
27781;DHT22;15167;1.318;103.762;2022-10-13T06:37:16;30.50;86.20
27781;DHT22;15167;1.318;103.762;2022-10-13T06:39:42;30.50;89.80
27781;DHT22;15167;1.318;103.762;2022-10-13T06:42:08;30.40;89.60
27781;DHT22;15167;1.318;103.762;2022-10-13T06:44:34;30.40;80.40
27781;DHT22;15167;1.318;103.762;2022-10-13T06:47:01;30.30;75.90
27781;DHT22;15167;1.318;103.762;2022-10-13T06:49:27;30.20;90.10
27781;DHT22;15167;1.318;103.762;2022-10-13T06:51:54;30.10;90.10
27781;DHT22;15167;1.318;103.762;2022-10-13T06:54:20;30.10;89.90
27781;DHT22;15167;1.318;103.762;2022-10-13T06:56:46;30.00;82.30
27781;DHT22;15167;1.318;103.762;2022-10-13T06:59:13;29.80;78.90
27781;DHT22;15167;1.318;103.762;2022-10-13T07:01:39;29.80;85.50
27781;DHT22;15167;1.318;103.762;2022-10-13T07:04:05;29.80;91.50
27781;DHT22;15167;1.318;103.762;2022-10-13T07:06:31;29.80;92.80
27781;DHT22;15167;1.318;103.762;2022-10-13T07:08:57;29.70;94.50
27781;DHT22;15167;1.318;103.762;2022-10-13T07:11:24;29.60;93.40
27781;DHT22;15167;1.318;103.762;2022-10-13T07:13:50;29.50;93.90
27781;DHT22;15167;1.318;103.762;2022-10-13T07:16:18;29.40;87.90
27781;DHT22;15167;1.318;103.762;2022-10-13T07:18:45;29.50;91.60
27781;DHT22;15167;1.318;103.762;2022-10-13T07:21:11;29.60;91.40
27781;DHT22;15167;1.318;103.762;2022-10-13T07:23:38;29.50;92.40
27781;DHT22;15167;1.318;103.762;2022-10-13T07:26:10;29.50;92.20
27781;DHT22;15167;1.318;103.762;2022-10-13T07:28:37;29.50;91.60
27781;DHT22;15167;1.318;103.762;2022-10-13T07:31:10;29.60;92.90
27781;DHT22;15167;1.318;103.762;2022-10-13T07:33:38;29.60;92.80
27781;DHT22;15167;1.318;103.762;2022-10-13T07:36:05;29.60;92.40
27781;DHT22;15167;1.318;103.762;2022-10-13T07:38:31;29.60;88.70
27781;DHT22;15167;1.318;103.762;2022-10-13T07:41:04;29.70;89.80
27781;DHT22;15167;1.318;103.762;2022-10-13T07:43:31;29.80;85.10
27781;DHT22;15167;1.318;103.762;2022-10-13T07:45:58;29.90;86.30
27781;DHT22;15167;1.318;103.762;2022-10-13T07:48:25;29.90;71.00
27781;DHT22;15167;1.318;103.762;2022-10-13T07:50:51;29.90;59.80
27781;DHT22;15167;1.318;103.762;2022-10-13T07:53:17;29.90;67.30
27781;DHT22;15167;1.318;103.762;2022-10-13T07:55:43;30.10;62.70
27781;DHT22;15167;1.318;103.762;2022-10-13T07:58:10;30.00;64.50
27781;DHT22;15167;1.318;103.762;2022-10-13T08:00:36;30.00;67.70
27781;DHT22;15167;1.318;103.762;2022-10-13T08:03:02;30.00;68.10
27781;DHT22;15167;1.318;103.762;2022-10-13T08:05:28;30.00;71.70
27781;DHT22;15167;1.318;103.762;2022-10-13T08:07:54;30.10;68.80
27781;DHT22;15167;1.318;103.762;2022-10-13T08:10:20;30.10;71.30
27781;DHT22;15167;1.318;103.762;2022-10-13T08:12:46;30.20;70.70
27781;DHT22;15167;1.318;103.762;2022-10-13T08:15:13;30.20;70.30
27781;DHT22;15167;1.318;103.762;2022-10-13T08:17:39;30.40;68.70
27781;DHT22;15167;1.318;103.762;2022-10-13T08:20:05;30.30;72.90
27781;DHT22;15167;1.318;103.762;2022-10-13T08:22:32;30.40;80.60
27781;DHT22;15167;1.318;103.762;2022-10-13T08:25:01;30.30;87.30
27781;DHT22;15167;1.318;103.762;2022-10-13T08:27:28;30.40;89.20
27781;DHT22;15167;1.318;103.762;2022-10-13T08:29:54;30.50;90.30
27781;DHT22;15167;1.318;103.762;2022-10-13T08:32:21;30.60;89.30
27781;DHT22;15167;1.318;103.762;2022-10-13T08:34:47;30.70;89.50
27781;DHT22;15167;1.318;103.762;2022-10-13T08:37:14;30.80;90.10
27781;DHT22;15167;1.318;103.762;2022-10-13T08:39:40;30.70;91.70
27781;DHT22;15167;1.318;103.762;2022-10-13T08:42:11;30.60;93.80
27781;DHT22;15167;1.318;103.762;2022-10-13T08:44:39;30.60;91.30
27781;DHT22;15167;1.318;103.762;2022-10-13T08:47:11;30.60;93.40
27781;DHT22;15167;1.318;103.762;2022-10-13T08:49:39;30.50;93.60
27781;DHT22;15167;1.318;103.762;2022-10-13T08:52:05;30.50;94.70
27781;DHT22;15167;1.318;103.762;2022-10-13T08:54:31;30.60;94.80
27781;DHT22;15167;1.318;103.762;2022-10-13T08:56:58;30.70;95.10
27781;DHT22;15167;1.318;103.762;2022-10-13T08:59:24;30.70;96.10
27781;DHT22;15167;1.318;103.762;2022-10-13T09:01:51;30.80;96.30
27781;DHT22;15167;1.318;103.762;2022-10-13T09:04:33;30.80;96.20
27781;DHT22;15167;1.318;103.762;2022-10-13T09:07:05;30.60;97.30
27781;DHT22;15167;1.318;103.762;2022-10-13T09:09:35;30.40;96.70
27781;DHT22;15167;1.318;103.762;2022-10-13T09:12:02;30.30;96.60
27781;DHT22;15167;1.318;103.762;2022-10-13T09:14:29;30.20;96.30
27781;DHT22;15167;1.318;103.762;2022-10-13T09:17:19;30.20;97.30
27781;DHT22;15167;1.318;103.762;2022-10-13T09:19:43;30.20;97.70
27781;DHT22;15167;1.318;103.762;2022-10-13T09:22:30;30.30;97.50
27781;DHT22;15167;1.318;103.762;2022-10-13T09:27:48;30.40;95.20
27781;DHT22;15167;1.318;103.762;2022-10-13T09:32:50;30.00;90.70
27781;DHT22;15167;1.318;103.762;2022-10-13T09:35:19;29.90;91.60
27781;DHT22;15167;1.318;103.762;2022-10-13T09:37:47;29.90;88.00
27781;DHT22;15167;1.318;103.762;2022-10-13T09:40:26;29.80;87.00
27781;DHT22;15167;1.318;103.762;2022-10-13T09:42:55;29.80;82.00
27781;DHT22;15167;1.318;103.762;2022-10-13T09:45:23;29.80;81.50
27781;DHT22;15167;1.318;103.762;2022-10-13T09:47:54;29.80;80.00
27781;DHT22;15167;1.318;103.762;2022-10-13T09:50:23;29.90;82.40
27781;DHT22;15167;1.318;103.762;2022-10-13T09:52:50;29.80;84.30
27781;DHT22;15167;1.318;103.762;2022-10-13T09:55:35;29.70;84.80
27781;DHT22;15167;1.318;103.762;2022-10-13T09:58:23;29.80;89.10
27781;DHT22;15167;1.318;103.762;2022-10-13T10:00:48;29.80;90.30
27781;DHT22;15167;1.318;103.762;2022-10-13T10:05:44;29.70;92.00
27781;DHT22;15167;1.318;103.762;2022-10-13T10:08:17;29.60;91.70
27781;DHT22;15167;1.318;103.762;2022-10-13T10:10:45;29.60;93.00
27781;DHT22;15167;1.318;103.762;2022-10-13T10:13:12;29.60;91.90
27781;DHT22;15167;1.318;103.762;2022-10-13T10:18:18;29.50;93.80
27781;DHT22;15167;1.318;103.762;2022-10-13T10:20:53;29.50;93.40
27781;DHT22;15167;1.318;103.762;2022-10-13T10:23:34;29.40;93.50
27781;DHT22;15167;1.318;103.762;2022-10-13T10:26:05;29.40;95.80
27781;DHT22;15167;1.318;103.762;2022-10-13T10:39:35;29.40;97.60
27781;DHT22;15167;1.318;103.762;2022-10-13T10:47:03;29.20;98.60
27781;DHT22;15167;1.318;103.762;2022-10-13T10:49:33;29.20;99.40
27781;DHT22;15167;1.318;103.762;2022-10-13T10:52:00;29.20;99.90
27781;DHT22;15167;1.318;103.762;2022-10-13T10:59:36;28.90;99.00
27781;DHT22;15167;1.318;103.762;2022-10-13T11:04:37;28.90;99.90
27781;DHT22;15167;1.318;103.762;2022-10-13T11:17:33;28.80;99.90
27781;DHT22;15167;1.318;103.762;2022-10-13T11:20:02;28.70;99.90
27781;DHT22;15167;1.318;103.762;2022-10-13T11:30:50;28.60;99.90
27781;DHT22;15167;1.318;103.762;2022-10-13T11:38:46;28.60;99.90
27781;DHT22;15167;1.318;103.762;2022-10-13T11:41:18;28.60;99.90
27781;DHT22;15167;1.318;103.762;2022-10-13T11:46:31;28.50;99.90
27781;DHT22;15167;1.318;103.762;2022-10-13T11:49:02;28.50;99.90
27781;DHT22;15167;1.318;103.762;2022-10-13T11:54:20;28.50;99.90
27781;DHT22;15167;1.318;103.762;2022-10-13T11:56:52;28.60;99.90
27781;DHT22;15167;1.318;103.762;2022-10-13T11:59:29;28.60;99.90
27781;DHT22;15167;1.318;103.762;2022-10-13T12:02:12;28.60;99.90
27781;DHT22;15167;1.318;103.762;2022-10-13T12:04:39;28.60;99.90
27781;DHT22;15167;1.318;103.762;2022-10-13T12:07:07;28.60;99.90
27781;DHT22;15167;1.318;103.762;2022-10-13T12:09:35;28.60;99.90
27781;DHT22;15167;1.318;103.762;2022-10-13T12:12:11;28.60;99.90
27781;DHT22;15167;1.318;103.762;2022-10-13T12:14:39;28.50;99.90
27781;DHT22;15167;1.318;103.762;2022-10-13T12:19:46;28.50;99.90
27781;DHT22;15167;1.318;103.762;2022-10-13T12:22:12;28.50;99.90
27781;DHT22;15167;1.318;103.762;2022-10-13T12:24:38;28.50;99.90
27781;DHT22;15167;1.318;103.762;2022-10-13T12:27:40;28.60;99.90
27781;DHT22;15167;1.318;103.762;2022-10-13T12:30:00;28.60;99.90
27781;DHT22;15167;1.318;103.762;2022-10-13T12:32:27;28.60;99.90
27781;DHT22;15167;1.318;103.762;2022-10-13T12:34:54;28.60;99.90
27781;DHT22;15167;1.318;103.762;2022-10-13T12:37:24;28.60;99.90
27781;DHT22;15167;1.318;103.762;2022-10-13T12:39:51;28.60;99.90
27781;DHT22;15167;1.318;103.762;2022-10-13T12:42:17;28.60;99.90
27781;DHT22;15167;1.318;103.762;2022-10-13T12:44:44;28.50;99.90
27781;DHT22;15167;1.318;103.762;2022-10-13T12:50:18;28.50;99.90
27781;DHT22;15167;1.318;103.762;2022-10-13T12:52:40;28.40;99.90
27781;DHT22;15167;1.318;103.762;2022-10-13T12:55:11;28.40;99.90
27781;DHT22;15167;1.318;103.762;2022-10-13T12:57:38;28.40;99.90
27781;DHT22;15167;1.318;103.762;2022-10-13T13:02:59;28.30;99.90
27781;DHT22;15167;1.318;103.762;2022-10-13T13:07:59;28.20;99.90
27781;DHT22;15167;1.318;103.762;2022-10-13T13:10:25;28.30;99.90
27781;DHT22;15167;1.318;103.762;2022-10-13T13:12:52;28.20;99.90
27781;DHT22;15167;1.318;103.762;2022-10-13T13:20:42;28.10;99.90
27781;DHT22;15167;1.318;103.762;2022-10-13T13:23:08;28.10;99.90
27781;DHT22;15167;1.318;103.762;2022-10-13T13:25:34;28.10;99.90
27781;DHT22;15167;1.318;103.762;2022-10-13T13:28:02;28.10;99.90
27781;DHT22;15167;1.318;103.762;2022-10-13T13:30:28;28.10;99.90
27781;DHT22;15167;1.318;103.762;2022-10-13T13:32:57;28.10;99.90
27781;DHT22;15167;1.318;103.762;2022-10-13T13:35:23;28.10;99.90
27781;DHT22;15167;1.318;103.762;2022-10-13T13:37:49;28.10;99.90
27781;DHT22;15167;1.318;103.762;2022-10-13T13:40:18;28.10;99.90
27781;DHT22;15167;1.318;103.762;2022-10-13T13:42:44;28.10;99.90
27781;DHT22;15167;1.318;103.762;2022-10-13T13:45:14;28.00;99.90
27781;DHT22;15167;1.318;103.762;2022-10-13T13:47:41;28.00;99.90
27781;DHT22;15167;1.318;103.762;2022-10-13T13:50:18;28.10;99.90
27781;DHT22;15167;1.318;103.762;2022-10-13T13:52:44;28.10;99.90
27781;DHT22;15167;1.318;103.762;2022-10-13T13:55:11;28.10;99.90
27781;DHT22;15167;1.318;103.762;2022-10-13T13:57:37;28.00;99.90
27781;DHT22;15167;1.318;103.762;2022-10-13T14:00:03;28.10;99.90
27781;DHT22;15167;1.318;103.762;2022-10-13T14:02:29;28.20;99.90
27781;DHT22;15167;1.318;103.762;2022-10-13T14:04:55;28.20;99.90
27781;DHT22;15167;1.318;103.762;2022-10-13T14:07:22;28.10;99.90
27781;DHT22;15167;1.318;103.762;2022-10-13T14:09:48;28.10;99.90
27781;DHT22;15167;1.318;103.762;2022-10-13T14:12:14;28.10;99.90
27781;DHT22;15167;1.318;103.762;2022-10-13T14:14:40;28.10;99.90
27781;DHT22;15167;1.318;103.762;2022-10-13T14:17:06;28.10;99.90
27781;DHT22;15167;1.318;103.762;2022-10-13T14:19:33;28.10;99.90
27781;DHT22;15167;1.318;103.762;2022-10-13T14:21:59;28.10;99.90
27781;DHT22;15167;1.318;103.762;2022-10-13T14:24:26;28.10;99.90
27781;DHT22;15167;1.318;103.762;2022-10-13T14:26:52;28.10;99.90
27781;DHT22;15167;1.318;103.762;2022-10-13T14:29:19;28.10;99.90
27781;DHT22;15167;1.318;103.762;2022-10-13T14:31:45;28.20;99.90
27781;DHT22;15167;1.318;103.762;2022-10-13T14:34:11;28.20;99.90
27781;DHT22;15167;1.318;103.762;2022-10-13T14:36:37;28.10;99.90
27781;DHT22;15167;1.318;103.762;2022-10-13T14:39:03;28.10;99.90
27781;DHT22;15167;1.318;103.762;2022-10-13T14:41:29;28.10;99.90
27781;DHT22;15167;1.318;103.762;2022-10-13T14:43:55;28.10;99.90
27781;DHT22;15167;1.318;103.762;2022-10-13T14:46:22;28.10;99.90
27781;DHT22;15167;1.318;103.762;2022-10-13T14:48:48;28.00;99.90
27781;DHT22;15167;1.318;103.762;2022-10-13T14:51:15;28.00;99.90
27781;DHT22;15167;1.318;103.762;2022-10-13T14:53:42;28.00;99.90
27781;DHT22;15167;1.318;103.762;2022-10-13T14:56:22;28.00;99.90
27781;DHT22;15167;1.318;103.762;2022-10-13T14:58:49;28.00;99.90
27781;DHT22;15167;1.318;103.762;2022-10-13T15:01:16;28.00;99.90
27781;DHT22;15167;1.318;103.762;2022-10-13T15:03:42;28.00;99.90
27781;DHT22;15167;1.318;103.762;2022-10-13T15:06:11;28.00;99.90
27781;DHT22;15167;1.318;103.762;2022-10-13T15:08:38;28.00;99.90
27781;DHT22;15167;1.318;103.762;2022-10-13T15:11:05;28.00;99.90
27781;DHT22;15167;1.318;103.762;2022-10-13T15:13:31;28.00;99.90
27781;DHT22;15167;1.318;103.762;2022-10-13T15:15:57;27.90;99.90
27781;DHT22;15167;1.318;103.762;2022-10-13T15:18:26;27.90;99.90
27781;DHT22;15167;1.318;103.762;2022-10-13T15:20:52;27.80;99.90
27781;DHT22;15167;1.318;103.762;2022-10-13T15:23:18;27.80;99.90
27781;DHT22;15167;1.318;103.762;2022-10-13T15:25:48;27.80;99.90
27781;DHT22;15167;1.318;103.762;2022-10-13T15:28:15;27.80;99.90
27781;DHT22;15167;1.318;103.762;2022-10-13T15:30:41;27.80;99.90
27781;DHT22;15167;1.318;103.762;2022-10-13T15:33:07;27.80;99.90
27781;DHT22;15167;1.318;103.762;2022-10-13T15:35:33;27.80;99.90
27781;DHT22;15167;1.318;103.762;2022-10-13T15:37:59;27.80;99.90
27781;DHT22;15167;1.318;103.762;2022-10-13T15:40:26;27.80;99.90
27781;DHT22;15167;1.318;103.762;2022-10-13T15:42:52;27.70;99.90
27781;DHT22;15167;1.318;103.762;2022-10-13T15:45:18;27.70;99.90
27781;DHT22;15167;1.318;103.762;2022-10-13T15:47:44;27.70;99.90
27781;DHT22;15167;1.318;103.762;2022-10-13T15:50:10;27.70;99.90
27781;DHT22;15167;1.318;103.762;2022-10-13T15:52:37;27.60;99.90
27781;DHT22;15167;1.318;103.762;2022-10-13T15:55:04;27.60;99.90
27781;DHT22;15167;1.318;103.762;2022-10-13T15:57:31;27.60;99.90
27781;DHT22;15167;1.318;103.762;2022-10-13T15:59:57;27.60;99.90
27781;DHT22;15167;1.318;103.762;2022-10-13T16:02:23;27.50;99.90
27781;DHT22;15167;1.318;103.762;2022-10-13T16:04:49;27.50;99.90
27781;DHT22;15167;1.318;103.762;2022-10-13T16:07:15;27.50;99.90
27781;DHT22;15167;1.318;103.762;2022-10-13T16:09:45;27.50;99.90
27781;DHT22;15167;1.318;103.762;2022-10-13T16:12:11;27.50;99.90
27781;DHT22;15167;1.318;103.762;2022-10-13T16:14:37;27.50;99.90
27781;DHT22;15167;1.318;103.762;2022-10-13T16:17:03;27.40;99.90
27781;DHT22;15167;1.318;103.762;2022-10-13T16:19:29;27.50;99.90
27781;DHT22;15167;1.318;103.762;2022-10-13T16:21:55;27.40;99.90
27781;DHT22;15167;1.318;103.762;2022-10-13T16:24:21;27.40;99.90
27781;DHT22;15167;1.318;103.762;2022-10-13T16:26:47;27.40;99.90
27781;DHT22;15167;1.318;103.762;2022-10-13T16:29:14;27.40;99.90
27781;DHT22;15167;1.318;103.762;2022-10-13T16:31:40;27.40;99.90
27781;DHT22;15167;1.318;103.762;2022-10-13T16:34:06;27.40;99.90
27781;DHT22;15167;1.318;103.762;2022-10-13T16:36:32;27.30;99.90
27781;DHT22;15167;1.318;103.762;2022-10-13T16:38:58;27.30;99.90
27781;DHT22;15167;1.318;103.762;2022-10-13T16:41:24;27.30;99.90
27781;DHT22;15167;1.318;103.762;2022-10-13T16:43:50;27.30;99.90
27781;DHT22;15167;1.318;103.762;2022-10-13T16:46:18;27.30;99.90
27781;DHT22;15167;1.318;103.762;2022-10-13T16:48:45;27.30;99.90
27781;DHT22;15167;1.318;103.762;2022-10-13T16:51:12;27.20;99.90
27781;DHT22;15167;1.318;103.762;2022-10-13T16:53:39;27.20;99.90
27781;DHT22;15167;1.318;103.762;2022-10-13T16:56:05;27.20;99.90
27781;DHT22;15167;1.318;103.762;2022-10-13T16:58:32;27.20;99.90
27781;DHT22;15167;1.318;103.762;2022-10-13T17:01:05;27.20;99.90